Hauptseite
METAR-TAF:

METAR-TAF

Flughäfen :

Flughafen Braunschweig-Wolfsburg

Braunschweig, Deutschland

Breite: 52-18N, Länge: 010-27E, Höhe: 81 m

Beobachtung

Neuester Wetterbericht von vor 17 Minuten, um 01:20 UTC
Wind 4 kt aus Ost
Temperatur -3°C
Luftfeuchtigkeit 93%
Luftdruck 1038 hPa
Sichtweite 10 km oder mehr

METAR: EDVE 050120Z AUTO 09004KT 9999 NCD M03/M04 Q1038

Zeit: 02:37 (01:37 UTC)

Prognose

Neuester Wetterbericht von vor 8 Stunden und 37 Minuten, um 17:00 UTC
Gültige Prognose vom 04 um 18 UTC bis 04 um 21 UTC
Wind 3 kt aus unterschiedlichen Richtungen
Sichtweite 10 km oder mehr
keine Wolken unter 1500 m und keine Kumulonimbus oder Gewitterwolken

TAF: EDVE 041700Z 0418/0421 VRB03KT CAVOK

Wetterbeobachtungen und Prognosen von mehr als 4000 Flughäfen (METAR und TAF Bericht).

Die verfügbaren Stationen werden durch gelbe und rote Markierungen auf der Karte dargestellt.

Führen Sie die Maus auf sie, um den Namen der Station zu sehen.

Darauf klicken, um die Beobachtung von Wetterbeobachtungen und Prognosen zu sehen.

Um die Karte zu ändern : klicken Sie auf den grünen Tasten mit einem schwarzen Kreuz Zum Vergrößern, auf den grünen Button mit einem Gedankenstrich zu verkleinern, oder auf die grünen Pfeile für benachbarte Karten.


METAR-TAF: